createdAt,value
2022-09-23T00:01:00.432Z,101697.00
2022-09-23T00:03:29.248Z,101697.81
2022-09-23T00:06:04.678Z,101695.41
2022-09-23T00:08:31.582Z,101685.06
2022-09-23T00:11:04.546Z,101693.91
2022-09-23T00:13:31.061Z,101690.88
2022-09-23T00:15:57.595Z,101687.31
2022-09-23T00:18:24.132Z,101687.38
2022-09-23T00:20:50.738Z,101676.44
2022-09-23T00:23:17.260Z,101682.50
2022-09-23T00:25:43.733Z,101675.00
2022-09-23T00:28:10.234Z,101677.75
2022-09-23T00:30:36.901Z,101679.94
2022-09-23T00:33:03.530Z,101691.69
2022-09-23T00:35:30.008Z,101681.56
2022-09-23T00:37:56.519Z,101679.09
2022-09-23T00:40:23.101Z,101681.19
2022-09-23T00:42:52.261Z,101671.00
2022-09-23T00:45:19.541Z,101672.81
2022-09-23T00:47:48.202Z,101679.31
2022-09-23T00:50:24.688Z,101668.88
2022-09-23T00:52:54.313Z,101682.75
2022-09-23T00:55:30.655Z,101683.16
2022-09-23T00:58:00.803Z,101674.44
2022-09-23T01:00:27.366Z,101668.78
2022-09-23T01:02:54.401Z,101666.81
2022-09-23T01:05:21.574Z,101666.94
2022-09-23T01:07:49.756Z,101667.28
2022-09-23T01:10:18.565Z,101663.22
2022-09-23T01:13:01.480Z,101671.47
2022-09-23T01:15:42.649Z,101657.72
2022-09-23T01:18:24.903Z,101668.22
2022-09-23T01:21:12.517Z,101664.94
2022-09-23T01:23:57.358Z,101668.59
2022-09-23T01:26:35.878Z,101670.91
2022-09-23T01:29:29.475Z,101669.38
2022-09-23T01:32:04.794Z,101669.13
2022-09-23T01:34:52.858Z,101681.41
2022-09-23T01:37:53.400Z,101670.66
2022-09-23T01:40:26.366Z,101667.44
2022-09-23T01:43:15.683Z,101669.56
2022-09-23T01:45:46.730Z,101669.94
2022-09-23T01:48:31.855Z,101659.88
2022-09-23T01:51:26.792Z,101665.22
2022-09-23T01:54:15.992Z,101662.09
2022-09-23T01:56:52.957Z,101664.97
2022-09-23T01:59:39.616Z,101660.81
2022-09-23T02:02:23.371Z,101658.94
2022-09-23T02:05:05.840Z,101656.72
2022-09-23T02:07:38.494Z,101646.94
2022-09-23T02:10:24.050Z,101645.66
2022-09-23T02:12:54.935Z,101640.28
2022-09-23T02:15:26.945Z,101632.53
2022-09-23T02:18:00.074Z,101632.38
2022-09-23T02:20:30.939Z,101631.81
2022-09-23T02:23:13.110Z,101614.50
2022-09-23T02:26:08.851Z,101620.69
2022-09-23T02:29:04.582Z,101611.84
2022-09-23T02:31:43.781Z,101610.81
2022-09-23T02:34:23.062Z,101619.31
2022-09-23T02:37:03.101Z,101612.91
2022-09-23T02:39:39.658Z,101604.88
2022-09-23T02:42:10.398Z,101606.81
2022-09-23T02:44:37.011Z,101602.81
2022-09-23T02:47:03.876Z,101605.09
2022-09-23T02:49:32.107Z,101602.56
2022-09-23T02:52:04.888Z,101604.00
2022-09-23T02:54:36.461Z,101598.38
2022-09-23T02:57:06.605Z,101607.44
2022-09-23T02:59:35.403Z,101601.31
2022-09-23T03:02:17.152Z,101586.03
2022-09-23T03:05:06.539Z,101590.69
2022-09-23T03:07:49.992Z,101593.06
2022-09-23T03:10:25.233Z,101598.34
2022-09-23T03:12:59.524Z,101593.81
2022-09-23T03:15:32.013Z,101590.91
2022-09-23T03:18:16.304Z,101579.09
2022-09-23T03:20:54.457Z,101590.75
2022-09-23T03:23:29.033Z,101583.59
2022-09-23T03:25:58.248Z,101593.28
2022-09-23T03:28:27.081Z,101594.59
2022-09-23T03:30:55.977Z,101585.06
2022-09-23T03:33:28.629Z,101587.09
2022-09-23T03:36:22.568Z,101585.88
2022-09-23T03:38:52.738Z,101592.13
2022-09-23T03:41:33.127Z,101579.53
2022-09-23T03:44:00.155Z,101593.94
2022-09-23T03:46:28.589Z,101578.00
2022-09-23T03:49:04.262Z,101578.00
2022-09-23T03:51:30.969Z,101578.16
2022-09-23T03:53:57.540Z,101567.72
2022-09-23T03:56:24.316Z,101573.34
2022-09-23T03:58:51.075Z,101554.06
2022-09-23T04:01:17.671Z,101558.41
2022-09-23T04:03:44.224Z,101554.03
2022-09-23T04:06:10.824Z,101549.66
2022-09-23T04:08:37.783Z,101558.28
2022-09-23T04:11:04.825Z,101544.50
2022-09-23T04:13:32.088Z,101536.47
2022-09-23T04:15:58.835Z,101545.22
2022-09-23T04:18:25.859Z,101538.84
2022-09-23T04:20:56.428Z,101541.16
2022-09-23T04:23:24.663Z,101530.75
2022-09-23T04:25:51.203Z,101542.25
2022-09-23T04:28:17.691Z,101530.75
2022-09-23T04:30:46.071Z,101527.38
2022-09-23T04:33:13.626Z,101530.00
2022-09-23T04:35:43.100Z,101530.38
2022-09-23T04:38:12.172Z,101533.50
2022-09-23T04:40:39.214Z,101537.56
2022-09-23T04:43:07.808Z,101539.91
2022-09-23T04:45:36.156Z,101534.31
2022-09-23T04:48:03.176Z,101541.22
2022-09-23T04:50:29.707Z,101528.56
2022-09-23T04:52:56.227Z,101531.00
2022-09-23T04:55:22.787Z,101525.13
2022-09-23T04:57:49.309Z,101537.28
2022-09-23T05:00:16.085Z,101536.56
2022-09-23T05:02:46.870Z,101536.22
2022-09-23T05:05:15.764Z,101544.72
2022-09-23T05:07:43.136Z,101542.41
2022-09-23T05:10:10.215Z,101543.34
2022-09-23T05:12:36.777Z,101555.78
2022-09-23T05:15:03.520Z,101554.34
2022-09-23T05:17:30.306Z,101556.59
2022-09-23T05:19:58.330Z,101553.97
2022-09-23T05:22:26.622Z,101554.69
2022-09-23T05:24:53.914Z,101557.88
2022-09-23T05:27:21.128Z,101561.81
2022-09-23T05:29:48.867Z,101566.34
2022-09-23T05:32:15.466Z,101561.97
2022-09-23T05:34:42.126Z,101561.16
2022-09-23T05:37:08.867Z,101564.13
2022-09-23T05:39:35.453Z,101576.44
2022-09-23T05:42:02.266Z,101574.66
2022-09-23T05:44:29.074Z,101581.63
2022-09-23T05:46:55.702Z,101565.84
2022-09-23T05:49:33.042Z,101572.09
2022-09-23T05:52:08.954Z,101576.09
2022-09-23T05:54:35.940Z,101576.31
2022-09-23T05:57:05.013Z,101581.47
2022-09-23T05:59:31.922Z,101578.44
2022-09-23T06:01:59.148Z,101576.59
2022-09-23T06:04:25.765Z,101569.50
2022-09-23T06:06:53.170Z,101563.38
2022-09-23T06:09:19.756Z,101560.75
2022-09-23T06:11:46.827Z,101554.41
2022-09-23T06:14:14.975Z,101561.97
2022-09-23T06:16:41.751Z,101567.16
2022-09-23T06:19:08.384Z,101553.47
2022-09-23T06:21:37.485Z,101556.53
2022-09-23T06:24:05.318Z,101562.28
2022-09-23T06:26:35.180Z,101553.22
2022-09-23T06:29:02.936Z,101548.44
2022-09-23T06:31:29.604Z,101549.72
2022-09-23T06:34:11.794Z,101548.84
2022-09-23T06:36:43.831Z,101554.03
2022-09-23T06:39:11.675Z,101552.38
2022-09-23T06:41:39.314Z,101545.38
2022-09-23T06:44:06.081Z,101546.28
2022-09-23T06:46:32.757Z,101543.50
2022-09-23T06:48:59.385Z,101546.78
2022-09-23T06:51:25.945Z,101548.53
2022-09-23T06:53:53.074Z,101535.59
2022-09-23T06:56:22.024Z,101535.72
2022-09-23T06:58:48.808Z,101540.00
2022-09-23T07:01:17.394Z,101535.34
2022-09-23T07:03:45.698Z,101529.84
2022-09-23T07:06:12.298Z,101531.34
2022-09-23T07:08:40.435Z,101529.06
2022-09-23T07:11:07.396Z,101535.19
2022-09-23T07:13:34.668Z,101516.09
2022-09-23T07:16:02.261Z,101529.91
2022-09-23T07:18:36.944Z,101536.28
2022-09-23T07:21:17.358Z,101539.75
2022-09-23T07:23:46.042Z,101536.13
2022-09-23T07:26:13.623Z,101537.16
2022-09-23T07:28:40.615Z,101528.44
2022-09-23T07:31:13.244Z,101534.47
2022-09-23T07:33:44.188Z,101529.66
2022-09-23T07:36:18.598Z,101530.16
2022-09-23T07:38:47.400Z,101537.63
2022-09-23T07:41:16.933Z,101545.69
2022-09-23T07:43:44.617Z,101531.84
2022-09-23T07:46:16.865Z,101531.41
2022-09-23T07:48:44.551Z,101521.00
2022-09-23T07:51:20.468Z,101524.75
2022-09-23T07:53:49.248Z,101521.78
2022-09-23T07:56:19.058Z,101529.50
2022-09-23T07:59:05.399Z,101525.47
2022-09-23T08:01:38.497Z,101526.91
2022-09-23T08:04:19.308Z,101534.16
2022-09-23T08:06:49.024Z,101538.47
2022-09-23T08:09:19.982Z,101544.34
2022-09-23T08:11:46.994Z,101540.94
2022-09-23T08:14:15.453Z,101551.47
2022-09-23T08:16:42.443Z,101535.03
2022-09-23T08:19:09.001Z,101544.72
2022-09-23T08:21:35.828Z,101541.19
2022-09-23T08:24:02.592Z,101541.34
2022-09-23T08:26:29.250Z,101541.44
2022-09-23T08:28:56.533Z,101536.66
2022-09-23T08:31:23.686Z,101528.03
2022-09-23T08:33:57.626Z,101531.31
2022-09-23T08:36:25.522Z,101526.50
2022-09-23T08:38:52.364Z,101519.50
2022-09-23T08:41:48.320Z,101518.75
2022-09-23T08:44:32.939Z,101524.53
2022-09-23T08:47:17.795Z,101515.34
2022-09-23T08:50:06.605Z,101524.59
2022-09-23T08:52:39.726Z,101515.09
2022-09-23T08:55:11.530Z,101508.72
2022-09-23T08:58:24.528Z,101513.13
2022-09-23T09:01:15.525Z,101513.47
2022-09-23T09:03:47.450Z,101521.06
2022-09-23T09:06:23.142Z,101525.47
2022-09-23T09:09:00.949Z,101525.84
2022-09-23T09:11:34.279Z,101528.66
2022-09-23T09:14:24.817Z,101521.91
2022-09-23T09:17:00.574Z,101519.91
2022-09-23T09:19:40.693Z,101522.31
2022-09-23T09:22:16.094Z,101514.75
2022-09-23T09:24:46.235Z,101527.91
2022-09-23T09:27:13.369Z,101526.31
2022-09-23T09:29:46.251Z,101526.69
2022-09-23T09:32:46.340Z,101523.53
2022-09-23T09:35:26.845Z,101513.53
2022-09-23T09:37:53.756Z,101518.75
2022-09-23T09:40:20.750Z,101508.28
2022-09-23T09:42:50.309Z,101498.28
2022-09-23T09:45:41.017Z,101497.09
2022-09-23T09:48:17.959Z,101496.56
2022-09-23T09:50:44.472Z,101493.69
2022-09-23T09:53:27.960Z,101482.13
2022-09-23T09:56:11.048Z,101490.31
2022-09-23T09:58:50.548Z,101486.13
2022-09-23T10:01:33.997Z,101476.00
2022-09-23T10:04:19.844Z,101485.22
2022-09-23T10:07:05.976Z,101466.81
2022-09-23T10:09:37.311Z,101476.34
2022-09-23T10:12:15.617Z,101469.06
2022-09-23T10:14:43.698Z,101469.72
2022-09-23T10:17:28.102Z,101475.50
2022-09-23T10:20:00.934Z,101477.09
2022-09-23T10:22:33.322Z,101474.16
2022-09-23T10:25:08.924Z,101479.84
2022-09-23T10:27:37.152Z,101471.16
2022-09-23T10:30:21.694Z,101476.84
2022-09-23T10:32:49.054Z,101473.28
2022-09-23T10:35:24.521Z,101475.38
2022-09-23T10:38:00.656Z,101476.19
2022-09-23T10:40:49.185Z,101473.25
2022-09-23T10:43:38.670Z,101476.19
2022-09-23T10:46:41.492Z,101481.50
2022-09-23T10:49:20.179Z,101479.69
2022-09-23T10:51:57.420Z,101470.38
2022-09-23T10:54:51.346Z,101472.38
2022-09-23T10:57:42.799Z,101477.72
2022-09-23T11:00:30.580Z,101475.94
2022-09-23T11:03:12.440Z,101480.22
2022-09-23T11:05:57.925Z,101480.13
2022-09-23T11:08:36.430Z,101477.53
2022-09-23T11:11:40.598Z,101474.91
2022-09-23T11:14:17.212Z,101471.81
2022-09-23T11:17:16.420Z,101472.94
2022-09-23T11:20:09.560Z,101461.16
2022-09-23T11:22:49.725Z,101467.44
2022-09-23T11:25:31.468Z,101456.06
2022-09-23T11:28:25.642Z,101461.69
2022-09-23T11:31:07.558Z,101460.81
2022-09-23T11:33:53.058Z,101468.09
2022-09-23T11:36:44.059Z,101470.03
2022-09-23T11:39:19.970Z,101464.09
2022-09-23T11:41:50.016Z,101455.53
2022-09-23T11:44:28.439Z,101461.44
2022-09-23T11:47:19.639Z,101456.53
2022-09-23T11:50:03.094Z,101454.22
2022-09-23T11:52:33.161Z,101457.91
2022-09-23T11:55:22.939Z,101459.72
2022-09-23T11:58:24.441Z,101441.59
2022-09-23T12:01:30.889Z,101438.31
2022-09-23T12:04:19.914Z,101443.59
2022-09-23T12:06:55.323Z,101429.16
2022-09-23T12:10:03.172Z,101444.56
2022-09-23T12:12:34.508Z,101439.88
2022-09-23T12:15:06.647Z,101431.56
2022-09-23T12:17:45.067Z,101441.91
2022-09-23T12:20:11.668Z,101437.34
2022-09-23T12:23:13.343Z,101432.91
2022-09-23T12:25:58.709Z,101438.75
2022-09-23T12:28:38.360Z,101439.31
2022-09-23T12:31:10.281Z,101441.13
2022-09-23T12:33:38.728Z,101439.47
2022-09-23T12:36:06.907Z,101441.28
2022-09-23T12:39:02.641Z,101436.56
2022-09-23T12:41:41.499Z,101431.44
2022-09-23T12:44:11.110Z,101435.31
2022-09-23T12:46:38.699Z,101432.19
2022-09-23T12:49:21.397Z,101427.63
2022-09-23T12:52:13.555Z,101446.88
2022-09-23T12:54:41.452Z,101439.03
2022-09-23T12:57:11.933Z,101430.28
2022-09-23T12:59:58.608Z,101442.47
2022-09-23T13:02:33.173Z,101429.59
2022-09-23T13:05:27.686Z,101436.03
2022-09-23T13:08:06.689Z,101433.22
2022-09-23T13:11:03.581Z,101430.00
2022-09-23T13:13:38.558Z,101424.34
2022-09-23T13:16:21.886Z,101413.38
2022-09-23T13:19:03.264Z,101413.47
2022-09-23T13:21:45.841Z,101408.38
2022-09-23T13:24:25.017Z,101415.25
2022-09-23T13:27:11.349Z,101404.84
2022-09-23T13:30:01.422Z,101396.28
2022-09-23T13:32:31.901Z,101399.94
2022-09-23T13:35:15.729Z,101397.66
2022-09-23T13:37:49.897Z,101403.78
2022-09-23T13:40:27.258Z,101404.59
2022-09-23T13:43:29.377Z,101396.84
2022-09-23T13:45:56.011Z,101394.50
2022-09-23T13:48:25.670Z,101394.16
2022-09-23T13:50:56.231Z,101391.72
2022-09-23T13:53:31.401Z,101393.38
2022-09-23T13:56:05.206Z,101387.06
2022-09-23T13:58:33.511Z,101387.88
2022-09-23T14:01:00.231Z,101384.72
2022-09-23T14:03:38.974Z,101387.53
2022-09-23T14:06:09.961Z,101386.69
2022-09-23T14:08:40.307Z,101389.44
2022-09-23T14:11:06.950Z,101380.59
2022-09-23T14:13:43.078Z,101376.97
2022-09-23T14:16:14.847Z,101385.09
2022-09-23T14:18:45.465Z,101384.50
2022-09-23T14:21:38.411Z,101381.31
2022-09-23T14:24:14.254Z,101385.38
2022-09-23T14:26:43.332Z,101386.63
2022-09-23T14:29:20.064Z,101378.75
2022-09-23T14:31:57.252Z,101393.84
2022-09-23T14:34:43.015Z,101395.78
2022-09-23T14:37:37.549Z,101390.84
2022-09-23T14:40:11.048Z,101392.09
2022-09-23T14:42:41.172Z,101381.78
2022-09-23T14:45:14.190Z,101392.38
2022-09-23T14:47:46.339Z,101398.09
2022-09-23T14:50:47.121Z,101391.06
2022-09-23T14:53:22.818Z,101404.66
2022-09-23T14:55:58.519Z,101399.53
2022-09-23T14:58:28.688Z,101399.13
2022-09-23T15:00:59.573Z,101403.88
2022-09-23T15:03:28.459Z,101405.84
2022-09-23T15:06:08.298Z,101391.09
2022-09-23T15:08:35.810Z,101399.41
2022-09-23T15:11:08.053Z,101395.00
2022-09-23T15:13:40.511Z,101389.91
2022-09-23T15:16:07.779Z,101389.38
2022-09-23T15:18:41.611Z,101375.00
2022-09-23T15:21:18.483Z,101395.56
2022-09-23T15:23:50.675Z,101386.94
2022-09-23T15:26:22.910Z,101390.66
2022-09-23T15:28:52.130Z,101400.88
2022-09-23T15:31:25.607Z,101399.31
2022-09-23T15:33:52.285Z,101390.16
2022-09-23T15:36:25.936Z,101409.00
2022-09-23T15:38:53.262Z,101418.16
2022-09-23T15:41:20.000Z,101408.09
2022-09-23T15:43:47.183Z,101412.53
2022-09-23T15:46:28.227Z,101416.69
2022-09-23T15:49:00.120Z,101426.94
2022-09-23T15:51:28.242Z,101423.44
2022-09-23T15:53:56.349Z,101422.25
2022-09-23T15:56:29.047Z,101423.13
2022-09-23T15:58:55.641Z,101431.19
2022-09-23T16:01:31.679Z,101428.78
2022-09-23T16:04:01.145Z,101423.09
2022-09-23T16:06:28.013Z,101432.00
2022-09-23T16:08:55.289Z,101423.13
2022-09-23T16:11:24.919Z,101426.81
2022-09-23T16:13:51.838Z,101429.63
2022-09-23T16:16:22.146Z,101431.28
2022-09-23T16:18:51.175Z,101428.97
2022-09-23T16:21:25.779Z,101433.75
2022-09-23T16:23:54.477Z,101432.94
2022-09-23T16:26:30.236Z,101424.94
2022-09-23T16:28:58.437Z,101425.31
2022-09-23T16:31:26.720Z,101420.94
2022-09-23T16:33:53.732Z,101423.34
2022-09-23T16:36:27.722Z,101417.03
2022-09-23T16:38:55.713Z,101419.41
2022-09-23T16:41:23.582Z,101419.06
2022-09-23T16:43:53.629Z,101431.03
2022-09-23T16:46:21.229Z,101427.06
2022-09-23T16:48:52.368Z,101431.03
2022-09-23T16:51:23.143Z,101425.47
2022-09-23T16:53:51.288Z,101426.66
2022-09-23T16:56:27.226Z,101424.28
2022-09-23T16:58:55.580Z,101429.06
2022-09-23T17:01:45.987Z,101423.09
2022-09-23T17:04:13.905Z,101431.47
2022-09-23T17:06:44.624Z,101431.47
2022-09-23T17:09:11.469Z,101424.31
2022-09-23T17:11:41.390Z,101441.03
2022-09-23T17:14:08.085Z,101444.63
2022-09-23T17:16:35.243Z,101453.75
2022-09-23T17:19:10.401Z,101454.56
2022-09-23T17:21:37.492Z,101454.16
2022-09-23T17:24:04.781Z,101458.94
2022-09-23T17:26:31.576Z,101456.16
2022-09-23T17:28:59.434Z,101459.72
2022-09-23T17:31:26.240Z,101460.50
2022-09-23T17:33:53.083Z,101457.69
2022-09-23T17:36:20.991Z,101469.22
2022-09-23T17:38:48.833Z,101471.94
2022-09-23T17:41:15.965Z,101470.31
2022-09-23T17:43:42.490Z,101467.94
2022-09-23T17:46:11.268Z,101466.69
2022-09-23T17:48:39.701Z,101473.06
2022-09-23T17:51:09.812Z,101461.84
2022-09-23T17:53:38.632Z,101465.88
2022-09-23T17:56:17.468Z,101463.09
2022-09-23T17:58:45.174Z,101461.84
2022-09-23T18:01:17.869Z,101464.72
2022-09-23T18:03:45.213Z,101465.47
2022-09-23T18:06:13.261Z,101465.47
2022-09-23T18:08:41.787Z,101455.50
2022-09-23T18:11:13.334Z,101455.16
2022-09-23T18:13:39.971Z,101463.16
2022-09-23T18:16:06.904Z,101452.34
2022-09-23T18:18:33.580Z,101458.34
2022-09-23T18:21:01.722Z,101461.50
2022-09-23T18:23:28.774Z,101457.91
2022-09-23T18:25:55.912Z,101457.94
2022-09-23T18:28:22.646Z,101454.34
2022-09-23T18:30:56.769Z,101439.19
2022-09-23T18:33:24.355Z,101455.13
2022-09-23T18:35:54.518Z,101458.28
2022-09-23T18:38:21.148Z,101450.34
2022-09-23T18:40:56.818Z,101451.94
2022-09-23T18:43:25.857Z,101449.13
2022-09-23T18:46:01.084Z,101447.53
2022-09-23T18:48:47.664Z,101450.69
2022-09-23T18:51:15.233Z,101448.69
2022-09-23T18:53:42.003Z,101452.66
2022-09-23T18:56:12.709Z,101453.03
2022-09-23T18:58:39.805Z,101444.69
2022-09-23T19:01:09.467Z,101448.34
2022-09-23T19:03:37.282Z,101451.06
2022-09-23T19:06:06.870Z,101449.91
2022-09-23T19:08:34.184Z,101442.28
2022-09-23T19:11:05.162Z,101450.25
2022-09-23T19:13:33.371Z,101454.19
2022-09-23T19:16:04.147Z,101450.16
2022-09-23T19:18:31.748Z,101451.75
2022-09-23T19:21:06.815Z,101451.44
2022-09-23T19:23:37.561Z,101453.41
2022-09-23T19:26:05.344Z,101444.28
2022-09-23T19:28:32.206Z,101447.88
2022-09-23T19:31:09.804Z,101439.50
2022-09-23T19:33:37.359Z,101448.19
2022-09-23T19:36:04.514Z,101439.50
2022-09-23T19:38:31.086Z,101443.84
2022-09-23T19:40:57.888Z,101435.47
2022-09-23T19:43:25.242Z,101443.72
2022-09-23T19:45:55.113Z,101443.38
2022-09-23T19:48:21.760Z,101439.84
2022-09-23T19:50:48.984Z,101440.19
2022-09-23T19:53:15.551Z,101444.97
2022-09-23T19:55:44.288Z,101442.97
2022-09-23T19:58:11.022Z,101423.88
2022-09-23T20:00:37.617Z,101437.03
2022-09-23T20:03:04.402Z,101433.50
2022-09-23T20:05:30.997Z,101435.81
2022-09-23T20:07:59.199Z,101433.47
2022-09-23T20:10:26.227Z,101431.81
2022-09-23T20:12:53.188Z,101427.44
2022-09-23T20:15:19.780Z,101432.19
2022-09-23T20:17:46.302Z,101436.50
2022-09-23T20:20:13.809Z,101430.50
2022-09-23T20:22:40.383Z,101431.72
2022-09-23T20:25:12.938Z,101436.78
2022-09-23T20:27:40.524Z,101429.19
2022-09-23T20:30:07.905Z,101441.56
2022-09-23T20:32:36.693Z,101437.13
2022-09-23T20:35:04.222Z,101433.50
2022-09-23T20:37:33.040Z,101435.59
2022-09-23T20:40:00.173Z,101433.16
2022-09-23T20:42:27.018Z,101433.97
2022-09-23T20:44:54.912Z,101429.22
2022-09-23T20:47:24.236Z,101427.78
2022-09-23T20:49:50.995Z,101432.16
2022-09-23T20:52:18.135Z,101424.88
2022-09-23T20:54:44.956Z,101429.69
2022-09-23T20:57:13.428Z,101434.47
2022-09-23T20:59:40.693Z,101436.03
2022-09-23T21:02:08.092Z,101435.66
2022-09-23T21:04:35.006Z,101437.59
2022-09-23T21:07:01.573Z,101430.44
2022-09-23T21:09:31.136Z,101426.81
2022-09-23T21:11:58.061Z,101430.31
2022-09-23T21:14:24.630Z,101435.50
2022-09-23T21:16:52.791Z,101439.06
2022-09-23T21:19:19.610Z,101439.88
2022-09-23T21:21:46.247Z,101436.69
2022-09-23T21:24:40.062Z,101432.59
2022-09-23T21:26:59.965Z,101436.16
2022-09-23T21:29:26.528Z,101438.16
2022-09-23T21:31:53.118Z,101438.28
2022-09-23T21:34:19.921Z,101437.41
2022-09-23T21:36:48.113Z,101435.06
2022-09-23T21:39:15.043Z,101426.16
2022-09-23T21:41:42.460Z,101429.75
2022-09-23T21:44:09.096Z,101435.03
2022-09-23T21:46:36.375Z,101430.22
2022-09-23T21:49:04.103Z,101433.41
2022-09-23T21:51:37.598Z,101438.13
2022-09-23T21:54:05.704Z,101437.28
2022-09-23T21:56:35.356Z,101434.53
2022-09-23T21:59:02.556Z,101428.16
2022-09-23T22:01:33.267Z,101430.38
2022-09-23T22:04:05.183Z,101433.13
2022-09-23T22:06:32.144Z,101436.34
2022-09-23T22:09:01.348Z,101434.34
2022-09-23T22:11:50.216Z,101439.13
2022-09-23T22:14:19.101Z,101425.97
2022-09-23T22:16:46.974Z,101426.13
2022-09-23T22:19:15.068Z,101430.56
2022-09-23T22:21:44.851Z,101425.22
2022-09-23T22:24:12.512Z,101419.66
2022-09-23T22:26:41.637Z,101432.31
2022-09-23T22:29:28.728Z,101424.09
2022-09-23T22:32:14.302Z,101422.84
2022-09-23T22:34:53.174Z,101422.84
2022-09-23T22:37:25.714Z,101425.03
2022-09-23T22:39:52.331Z,101419.78
2022-09-23T22:42:21.259Z,101412.94
2022-09-23T22:44:48.782Z,101419.75
2022-09-23T22:47:17.569Z,101412.50
2022-09-23T22:49:44.135Z,101418.75
2022-09-23T22:52:11.398Z,101414.50
2022-09-23T22:54:38.588Z,101404.88
2022-09-23T22:57:06.899Z,101402.56
2022-09-23T22:59:33.736Z,101390.31
2022-09-23T23:02:02.389Z,101399.00
2022-09-23T23:04:30.065Z,101396.72
2022-09-23T23:06:58.719Z,101392.66
2022-09-23T23:09:25.351Z,101387.84
2022-09-23T23:11:51.926Z,101389.47
2022-09-23T23:14:18.961Z,101385.91
2022-09-23T23:16:46.267Z,101379.44
2022-09-23T23:19:16.552Z,101375.19
2022-09-23T23:21:43.913Z,101364.69
2022-09-23T23:24:15.543Z,101355.47
2022-09-23T23:26:42.615Z,101371.44
2022-09-23T23:29:11.779Z,101371.50
2022-09-23T23:31:38.938Z,101365.53
2022-09-23T23:34:08.389Z,101344.38
2022-09-23T23:36:35.000Z,101354.00
2022-09-23T23:39:01.614Z,101347.34
2022-09-23T23:41:28.857Z,101348.19
2022-09-23T23:44:01.099Z,101344.97
2022-09-23T23:46:30.692Z,101333.09
2022-09-23T23:48:58.843Z,101334.69
2022-09-23T23:51:26.971Z,101343.53
2022-09-23T23:53:57.050Z,101335.59
2022-09-23T23:56:24.973Z,101331.56
2022-09-23T23:58:58.839Z,101320.44
